Station: Cape Moreton  

  Atmospheric Gas Attenuation - ITU Rec 676-11   ----------------- dB/100km -----------------
Date Time Temp RH % AH g/m3 Dew Point Wind Direction Speed kph Gust kph Barometer mB Rainfall Since 9am 24GHz 47GHz 76GHz 122GHz 134GHz 241GHz
08/05 12:30 19.1 47 7.7 7.5 17 22 1018.6 0 17.4 23.3 34.2 89.4 81.5 279.7
08/05 12:20 19 43 7.01 6.1 15 17 1018.9 0 16.0 22.3 31.7 82.9 73.4 251.6
08/05 12:10 19 43 7.01 6.1 11 15 1019.1 0 16.0 22.3 31.8 82.9 73.4 251.6
08/05 12:00 18.8 40 6.44 4.9 13 20 1019.1 0 14.8 21.5 29.8 77.8 67.0 229.1
08/05 11:50 18.9 40 6.48 5 13 19 1019.4 0 14.9 21.6 29.9 78.1 67.4 230.5
08/05 11:40 18.8 40 6.44 4.9 13 15 1019.5 0 14.8 21.6 29.8 77.8 67.1 229.2
08/05 11:30 18.5 40 6.33 4.7 15 22 1019.5 0 14.6 21.5 29.6 77.1 66.1 225.6
08/05 11:20 18.8 42 6.76 5.6 11 15 1019.8 0 15.5 22.0 31.0 80.9 70.8 242.2
08/05 11:10 18.6 42 6.68 5.5 15 20 1019.8 0 15.3 22.0 30.8 80.3 70.0 239.5
08/05 11:00 18.8 44 7.09 6.3 15 22 1019.7 0 16.2 22.5 32.1 84.0 74.6 255.7
08/05 10:50 18.5 42 6.64 5.4 17 22 1020 0 15.2 21.9 30.7 80.0 69.7 238.2
08/05 10:40 18.4 43 6.76 5.6 17 19 1020.2 0 15.5 22.1 31.1 81.3 71.1 243.5
08/05 10:30 18.6 42 6.68 5.5 15 17 1020.2 0 15.3 22.0 30.8 80.3 70.0 239.6
08/05 10:20 18.5 40 6.33 4.7 17 22 1020.3 0 14.6 21.5 29.6 77.2 66.1 225.8
08/05 10:10 18.6 44 7 6.1 15 17 1020.5 0 16.0 22.4 31.9 83.4 73.8 252.8
08/05 10:00 18.3 43 6.72 5.5 17 24 1020.5 0 15.4 22.1 31.0 81.0 70.8 242.2
08/05 09:50 18.3 42 6.57 5.2 13 19 1020.6 0 15.1 21.9 30.5 79.6 69.1 236.1
08/05 09:40 17.8 41 6.22 4.4 20 26 1020.6 0 14.4 21.5 29.5 76.8 65.4 223.3
08/05 09:30 18.1 43 6.64 5.3 17 24 1020.6 0 15.2 22.0 30.8 80.5 70.0 239.5
08/05 09:20 17.7 42 6.34 4.6 19 22 1020.4 0 14.6 21.7 29.9 78.0 66.9 228.4
08/05 09:10 17.6 43 6.45 4.9 19 24 1020.3 0 14.9 21.9 30.4 79.2 68.2 233.2
08/05 09:00 17.6 43 6.45 4.9 17 24 1020.3 0 14.9 21.9 30.4 79.2 68.2 233.2
08/05 08:50 17.5 44 6.56 5.1 13 15 1020.4 0 15.1 22.1 30.8 80.3 69.6 238.0
08/05 08:40 17.1 45 6.55 5.1 15 19 1020.3 0 15.1 22.1 30.9 80.6 69.8 238.7
08/05 08:30 16.7 47 6.68 5.3 19 30 1020.1 0 15.4 22.4 31.5 82.2 71.7 245.2
08/05 08:20 16.4 49 6.84 5.7 17 20 1020.1 0 15.7 22.7 32.2 84.1 73.9 252.9
08/05 08:10 15.8 52 7 6 19 24 1020.1 0 16.1 23.1 33.0 86.3 76.4 261.6
08/05 08:00 15.5 53 7.01 6 20 28 1019.9 0 16.1 23.2 33.2 86.7 76.8 262.9
08/05 07:50 15.2 53 6.88 5.7 22 24 1019.9 0 15.9 23.1 32.8 85.7 75.5 258.3
08/05 07:40 14.9 55 7.01 6 22 28 1019.9 0 16.2 23.4 33.4 87.3 77.4 264.9
08/05 07:30 14.7 55 6.92 5.8 22 30 1019.7 0 16.0 23.3 33.2 86.6 76.5 261.6
08/05 07:20 14.5 56 6.97 5.8 22 28 1019.6 0 16.1 23.4 33.4 87.3 77.3 264.4
08/05 07:10 14.3 57 7 5.9 20 24 1019.3 0 16.2 23.5 33.6 87.8 77.8 266.3
08/05 07:00 14 58 7 5.9 24 33 1019.1 0 16.2 23.5 33.7 88.1 78.1 267.3
08/05 06:50 13.9 58 6.95 5.8 26 35 1019.2 0 16.1 23.5 33.6 87.8 77.6 265.4
08/05 06:40 14 58 7 5.9 28 30 1019.1 0 16.2 23.5 33.7 88.1 78.1 267.3
08/05 06:30 14 59 7.12 6.1 26 35 1018.7 0 16.4 23.7 34.2 89.3 79.6 272.4
08/05 06:20 13.9 59 7.07 6 26 32 1018.8 0 16.3 23.7 34.0 88.9 79.0 270.6
08/05 06:10 13.9 58 6.95 5.8 24 30 1018.6 0 16.1 23.5 33.6 87.7 77.5 265.3
08/05 06:00 14 58 7 5.9 26 35 1018.4 0 16.2 23.5 33.7 88.1 78.0 267.1
08/05 05:50 14.1 58 7.04 6 24 26 1018.5 0 16.2 23.6 33.8 88.4 78.4 268.5
08/05 05:40 14.2 58 7.08 6.1 26 32 1018.4 0 16.3 23.6 33.9 88.7 78.8 269.9
08/05 05:30 14.2 58 7.08 6.1 24 35 1018.2 0 16.3 23.6 33.9 88.6 78.8 269.9
08/05 05:20 14.3 57 7 5.9 24 30 1018.1 0 16.2 23.4 33.6 87.7 77.7 266.0
08/05 05:10 14.3 57 7 5.9 24 28 1017.9 0 16.2 23.4 33.5 87.7 77.7 266.0
08/05 05:00 14.4 57 7.05 6 24 35 1017.8 0 16.3 23.5 33.7 88.1 78.2 267.8
08/05 04:50 14.4 57 7.05 6 24 28 1017.8 0 16.3 23.5 33.7 88.1 78.2 267.8
08/05 04:40 14.4 58 7.17 6.3 20 26 1017.6 0 16.5 23.6 34.1 89.3 79.7 273.0
08/05 04:30 14.6 58 7.26 6.4 24 33 1017.5 0 16.7 23.7 34.4 89.9 80.6 276.2
08/05 04:20 14.6 57 7.13 6.2 24 32 1017.4 0 16.4 23.5 33.9 88.6 79.0 270.5
08/05 04:10 14.6 57 7.13 6.2 28 35 1017.2 0 16.4 23.5 33.9 88.6 79.0 270.5
08/05 04:00 14.6 58 7.26 6.4 28 35 1017.1 0 16.7 23.7 34.4 89.9 80.6 276.1
08/05 03:50 14.7 58 7.3 6.5 20 28 1017.2 0 16.8 23.7 34.5 90.2 81.0 277.6
08/05 03:40 14.8 58 7.35 6.6 26 39 1017 0 16.9 23.8 34.6 90.6 81.5 279.3
08/05 03:30 14.9 59 7.52 7 28 41 1016.9 0 17.2 24.0 35.2 92.2 83.5 286.4
08/05 03:20 15 59 7.57 7.1 28 33 1016.8 0 17.3 24.1 35.4 92.6 84.0 288.2
08/05 03:10 15 58 7.44 6.8 26 32 1016.8 0 17.1 23.9 34.9 91.2 82.4 282.5
08/05 03:00 15.2 57 7.4 6.7 26 39 1016.6 0 17.0 23.7 34.6 90.6 81.7 280.0
08/05 02:50 15.2 57 7.4 6.7 26 37 1016.8 0 17.0 23.8 34.6 90.6 81.7 280.1
08/05 02:40 15.3 57 7.44 6.8 26 32 1016.8 0 17.0 23.8 34.7 90.9 82.1 281.5
08/05 02:30 15.3 58 7.57 7.1 20 30 1016.7 0 17.3 24.0 35.2 92.2 83.7 287.1
08/05 02:20 15.4 57 7.49 6.9 22 30 1016.7 0 17.2 23.8 34.9 91.3 82.6 283.3
08/05 02:10 15.7 56 7.49 7 22 28 1016.9 0 17.1 23.8 34.8 91.0 82.3 282.3
08/05 02:00 15.7 56 7.49 7 24 39 1016.8 0 17.1 23.8 34.8 91.0 82.3 282.2
08/05 01:50 15.7 57 7.63 7.2 20 24 1017.1 0 17.4 24.0 35.3 92.4 84.0 288.4
08/05 01:40 16 56 7.63 7.2 26 35 1016.7 0 17.4 23.9 35.1 92.0 83.7 287.2
08/05 01:30 15.7 57 7.63 7.2 19 28 1017.1 0 17.4 24.0 35.3 92.4 84.0 288.4
08/05 01:20 16.3 54 7.49 7 19 24 1017 0 17.1 23.6 34.5 90.3 81.7 280.2
08/05 01:10 16.7 51 7.25 6.5 28 32 1016.8 0 16.6 23.1 33.4 87.5 78.3 268.5
08/05 01:00 16.8 51 7.29 6.6 22 32 1016.7 0 16.7 23.2 33.5 87.7 78.7 269.8
08/05 00:50 16.6 51 7.2 6.4 20 26 1017.1 0 16.5 23.1 33.3 87.1 77.8 266.8
08/05 00:40 17 50 7.23 6.5 26 32 1017 0 16.5 23.0 33.3 87.0 77.8 266.7
08/05 00:30 17 50 7.23 6.5 24 33 1017 0 16.5 23.0 33.3 87.0 77.8 266.7
08/05 00:20 17 51 7.38 6.8 22 28 1017.3 0 16.9 23.3 33.8 88.5 79.6 273.1
08/05 00:10 17.3 50 7.37 6.8 24 30 1017.2 0 16.8 23.2 33.7 88.0 79.2 271.7
08/05 00:00 17.5 49 7.3 6.7 24 33 1017.1 0 16.7 23.0 33.3 87.1 78.2 268.0
07/05 23:50 17.6 48 7.2 6.5 22 26 1017.2 0 16.4 22.9 32.9 86.0 76.9 263.5
07/05 23:40 17.7 47 7.09 6.3 22 30 1017.2 0 16.2 22.7 32.5 84.9 75.5 258.6
07/05 23:30 18.1 45 6.95 6 26 41 1017.2 0 15.9 22.4 31.8 83.1 73.4 251.5
07/05 23:20 18.2 44 6.84 5.8 30 37 1017.1 0 15.7 22.2 31.4 82.0 72.1 246.7
07/05 23:10 18.3 43 6.72 5.5 24 32 1017.1 0 15.4 22.0 30.9 80.7 70.6 241.5
07/05 23:00 18.3 43 6.72 5.5 26 43 1017.2 0 15.4 22.0 30.9 80.7 70.6 241.5
07/05 22:50 18.6 42 6.68 5.5 30 46 1017 0 15.3 21.9 30.7 80.1 69.8 239.0
07/05 22:40 18.6 42 6.68 5.5 26 35 1017 0 15.3 21.9 30.7 80.1 69.8 239.0
07/05 22:30 19 39 6.35 4.7 35 52 1016.3 0 14.6 21.3 29.3 76.6 65.7 224.4
07/05 22:20 19.1 38 6.23 4.5 33 43 1016.6 0 14.3 21.1 28.9 75.4 64.3 219.4
07/05 22:10 19.2 38 6.27 4.6 35 43 1016.5 0 14.4 21.1 29.0 75.7 64.6 220.7
07/05 22:00 19.1 39 6.39 4.8 28 39 1016.5 0 14.7 21.3 29.5 76.8 66.1 225.8
07/05 21:50 19.4 39 6.51 5.1 32 41 1016.6 0 14.9 21.4 29.8 77.7 67.2 229.7
07/05 21:40 19.3 39 6.47 5 30 37 1016.6 0 14.8 21.4 29.7 77.4 66.8 228.4
07/05 21:30 19.5 40 6.71 5.6 26 37 1016.9 0 15.3 21.7 30.4 79.4 69.4 237.5
07/05 21:20 19.7 39 6.62 5.4 26 35 1017 0 15.1 21.5 30.1 78.4 68.2 233.4
07/05 21:10 19.7 40 6.79 5.7 26 30 1017 0 15.5 21.8 30.6 80.0 70.2 240.2
07/05 21:00 19.5 43 7.22 6.6 22 30 1016.8 0 16.4 22.4 32.2 84.2 75.3 258.1
07/05 20:50 19.7 42 7.13 6.4 22 28 1016.7 0 16.2 22.2 31.8 83.1 74.0 253.8
07/05 20:40 19.9 43 7.39 7 24 33 1016.5 0 16.8 22.5 32.6 85.4 76.9 263.7
07/05 20:30 19.8 45 7.69 7.5 20 28 1016.4 0 17.4 23.0 33.7 88.3 80.5 276.4
07/05 20:20 20 47 8.12 8.4 17 20 1016.3 0 18.3 23.6 35.2 92.2 85.4 293.6
07/05 20:10 20.2 47 8.22 8.5 15 19 1016.4 0 18.5 23.7 35.5 93.0 86.4 297.1
07/05 20:00 20.1 47 8.17 8.4 19 26 1016.1 0 18.4 23.6 35.3 92.6 85.8 295.3

Last Refresh: 08-May-2026 12:08:29

Bureau of Meteorology